This is the latest recevied weather packets stored in our database for station/object VU3IZK-14. If no packets are shown the sender has not sent any weather packets the latest 1 day(s).
| Time | Temp. | Humidity | Pressure | Rain* | Wind** | Luminosity | Snow |
|---|---|---|---|---|---|---|---|
| 1778013384 | 25° C | 58% | - | - | 0.45 m/s, 298° | - | - |
| 1778012484 | 25° C | 58% | - | - | 0.45 m/s, 277° | - | - |
| 1778011586 | 25° C | 58% | - | - | 0 m/s | - | - |
| 1778010684 | 25° C | 60% | - | - | 0.45 m/s, 277° | - | - |
| 1778009783 | 25° C | 60% | - | - | 0.45 m/s, 285° | - | - |
| 1778008884 | 25.56° C | 59% | - | - | 0.45 m/s, 258° | - | - |
| 1778007984 | 25.56° C | 58% | - | - | 0.45 m/s, 256° | - | - |
| 1778007083 | 25.56° C | 57% | - | - | 0 m/s | - | - |
| 1778006185 | 25.56° C | 56% | - | - | 0.45 m/s, 210° | - | - |
| 1778005284 | 26.11° C | 55% | - | - | 0.89 m/s, 245° | - | - |
| 1778004384 | 26.11° C | 55% | - | - | 0.45 m/s, 284° | - | - |
| 1778003484 | 26.11° C | 54% | - | - | 0.45 m/s, 294° | - | - |
| 1778002584 | 26.11° C | 54% | - | - | 0 m/s | - | - |
| 1778001685 | 26.67° C | 52% | - | - | 0.45 m/s, 273° | - | - |
| 1777999884 | 26.67° C | 52% | - | - | 0 m/s | - | - |
| 1777998987 | 27.22° C | 52% | - | - | 0.45 m/s, 289° | - | - |
| 1777998084 | 27.22° C | 52% | - | - | 0.89 m/s, 243° | - | - |
| 1777997185 | 27.78° C | 51% | - | - | 0.45 m/s, 225° | - | - |
| 1777995384 | 27.78° C | 49% | - | - | 0.89 m/s, 230° | - | - |
| 1777994484 | 28.33° C | 48% | - | - | 0.45 m/s, 264° | - | - |
| 1777993584 | 28.89° C | 45% | - | - | 0.45 m/s, 211° | - | - |
| 1777992684 | 28.89° C | 45% | - | - | 0.45 m/s, 229° | - | - |
| 1777991785 | 29.44° C | 41% | - | - | 0.45 m/s, 244° | - | - |
| 1777990884 | 30.56° C | 34% | - | - | 0 m/s | - | - |
| 1777989983 | 30.56° C | 34% | - | - | 0.45 m/s, 229° | - | - |
* Rain since midnight (hover to see other rain measurements)
** Current wind speed in m/s (hover to see current wind gust speed)